CNUK1: Grand River, Chanute

                                SHEF ID:       CNUK1     NEOSHO R NR CHANUTE, KS
STATION TYPE:
Regulating: Stage = 22.00, Flow = 20159

PRECIP STAGE RIV-FLOW VOLTAGE BAT-LOAD
in ft cfs volt volt
Ccp-Rev Ccp-Rev Ccp-Rev Ccp-Rev Ccp-Rev
(America/Chicago)
02/20 00:00 0.00 12.28 4673 12.80 12.50
02/20 01:00 0.00 12.28 4673 12.80 12.48
02/20 02:00 0.00 12.28 4673 12.79 12.46
02/20 03:00 0.00 12.28 4673 12.76 12.45
02/20 04:00 0.00 12.27 4658 12.75 12.44
02/20 05:00 0.00 12.27 4658 12.75 12.42
02/20 06:00 0.00 12.25 4630 12.73 12.40
02/20 07:00 0.00 12.26 4644 12.72 12.40
02/20 08:00 0.00 12.25 4630 12.77 12.40
02/20 09:00 0.00 12.24 4615 13.53 12.57
02/20 10:00 0.00 12.26 4644 14.10 13.09
02/20 11:00 0.00 12.25 4630 13.89 12.98
02/20 12:00 0.00 12.25 4630 14.21 12.93
02/20 13:00 0.00 12.25 4630 13.74 12.86
02/20 14:00 0.00 12.24 4615 13.87 12.83
02/20 15:00 0.00 12.24 4615 13.81 12.75
02/20 16:00 0.00 12.24 4615 13.42 12.71
02/20 17:00 0.00 12.24 4615 14.08 12.71
02/20 18:00 0.00 12.25 4630 12.93 12.64
02/20 19:00 0.00 12.25 4630 12.88 12.59
02/20 20:00 0.00 12.25 4630 12.87 12.56
02/20 21:00 0.00 12.24 4615 12.84 12.53
02/20 22:00 0.00 12.23 4601 12.83 12.50
02/20 23:00 0.00 12.24 4615 12.82 12.50
Data processed at Sat 21Feb2026 05:37 GMT

NOTICE: If you are parsing this page

Please convert to using our Data API. Starting early 2026 we will be migrating to: https://water.usace.army.mil with modern pages rendered in JavaScript. When this migration completes you will no longer be able to scrape this page! CWMSDataAPI (CDA)

Timeseries IDs (TSIDs)

TSIDs used from left to right in the data table
CHAU.Precip-Inc.Total.1Hour.1Hour.Ccp-Rev
CHAU.Stage.Inst.1Hour.0.Ccp-Rev
CHAU.Flow.Inst.1Hour.0.Ccp-Rev
CHAU.Volt-Battery.Inst.1Hour.0.Ccp-Rev
CHAU.Volt-Battery Load.Inst.1Hour.0.Ccp-Rev

                            

All information presented herein is the property of the government of the United States of America and may be revised or deleted at any time without prior notice. Dissemination of this information without the expressed written consent of the Public Affairs Office, Tulsa District U.S. Army Corps of Engineers is strictly prohibited. These data are gathered electronically and, as presented, have NOT undergone any form of quality control. These data are NOT guaranteed to be valid or correct.